Time,TemperatureF,DewpointF,PressureIn,WindDirection,WindDirectionDegrees,WindSpeedMPH,WindSpeedGustMPH,Humidity,HourlyPrecipIn,Conditions,Clouds,dailyrainin,SoftwareType,DateUTC
2013-04-27 00:01:00,74.1,64.9,30.21,East,94,0.0,7.0,73,0.00,,,0.00,meteohub,2013-04-27 04:01:00,
2013-04-27 00:02:00,74.1,64.9,30.21,NNE,14,3.0,7.0,73,0.00,,,0.00,meteohub,2013-04-27 04:02:00,
2013-04-27 00:07:00,74.1,64.9,30.21,NNE,24,3.0,7.0,73,0.00,,,0.00,meteohub,2013-04-27 04:07:00,
2013-04-27 00:12:00,73.9,64.4,30.21,East,85,0.0,9.0,72,0.00,,,0.00,meteohub,2013-04-27 04:12:00,
2013-04-27 00:17:00,73.9,63.9,30.21,ENE,66,2.0,9.0,71,0.00,,,0.00,meteohub,2013-04-27 04:17:00,
2013-04-27 00:22:00,73.9,64.4,30.21,NE,48,1.0,9.0,72,0.00,,,0.00,meteohub,2013-04-27 04:22:00,
2013-04-27 00:27:00,73.9,64.4,30.21,NNE,25,0.0,7.0,72,0.00,,,0.00,meteohub,2013-04-27 04:27:00,
2013-04-27 00:32:00,73.9,64.4,30.21,East,89,1.0,5.0,72,0.00,,,0.00,meteohub,2013-04-27 04:32:00,
2013-04-27 00:37:00,73.9,64.4,30.21,NNE,32,2.0,4.0,72,0.00,,,0.00,meteohub,2013-04-27 04:37:00,
2013-04-27 00:42:00,73.8,64.2,30.21,North,5,0.0,4.0,72,0.00,,,0.00,meteohub,2013-04-27 04:42:00,
2013-04-27 00:47:00,73.8,64.6,30.21,ENE,63,0.0,4.0,73,0.00,,,0.00,meteohub,2013-04-27 04:47:00,
2013-04-27 00:52:00,73.8,64.6,30.20,ESE,108,1.0,4.0,73,0.00,,,0.00,meteohub,2013-04-27 04:52:00,
2013-04-27 00:57:00,73.9,64.8,30.20,NNE,15,2.0,5.0,73,0.00,,,0.00,meteohub,2013-04-27 04:57:00,
2013-04-27 01:02:00,73.9,64.8,30.20,East,88,0.0,5.0,73,0.00,,,0.00,meteohub,2013-04-27 05:02:00,
2013-04-27 01:08:00,73.9,64.8,30.20,ENE,61,1.0,5.0,73,0.00,,,0.00,meteohub,2013-04-27 05:08:00,
2013-04-27 01:13:00,74.1,65.3,30.20,NNE,25,0.0,9.0,74,0.00,,,0.00,meteohub,2013-04-27 05:13:00,
2013-04-27 01:18:00,74.1,65.3,30.20,NNE,32,2.0,9.0,74,0.00,,,0.00,meteohub,2013-04-27 05:18:00,
2013-04-27 01:23:00,73.9,64.8,30.19,NE,55,0.0,9.0,73,0.00,,,0.00,meteohub,2013-04-27 05:23:00,
2013-04-27 01:28:00,73.9,64.8,30.19,NE,38,1.0,6.0,73,0.00,,,0.00,meteohub,2013-04-27 05:28:00,
2013-04-27 01:33:00,73.9,65.1,30.19,East,88,0.0,6.0,74,0.00,,,0.00,meteohub,2013-04-27 05:33:00,
2013-04-27 01:38:00,73.9,65.1,30.19,ESE,115,1.0,6.0,74,0.00,,,0.00,meteohub,2013-04-27 05:38:00,
2013-04-27 01:43:00,73.8,64.2,30.19,NNE,19,3.0,6.0,72,0.00,,,0.00,meteohub,2013-04-27 05:43:00,
2013-04-27 01:48:00,73.8,64.2,30.19,NE,56,0.0,9.0,72,0.00,,,0.00,meteohub,2013-04-27 05:48:00,
2013-04-27 01:53:00,73.6,64.0,30.18,NE,34,0.0,9.0,72,0.00,,,0.00,meteohub,2013-04-27 05:53:00,
2013-04-27 01:58:00,73.6,62.8,30.18,East,86,0.0,9.0,69,0.00,,,0.00,meteohub,2013-04-27 05:58:00,
2013-04-27 02:03:00,73.4,63.0,30.18,ENE,64,0.0,7.0,70,0.00,,,0.00,meteohub,2013-04-27 06:03:00,
2013-04-27 02:08:00,73.2,63.7,30.18,ENE,76,0.0,7.0,72,0.00,,,0.00,meteohub,2013-04-27 06:08:00,
2013-04-27 02:13:00,73.2,63.7,30.18,East,82,0.0,7.0,72,0.00,,,0.00,meteohub,2013-04-27 06:13:00,
2013-04-27 02:18:00,73.2,63.7,30.18,ENE,59,0.0,6.0,72,0.00,,,0.00,meteohub,2013-04-27 06:18:00,
2013-04-27 02:23:00,73.0,62.2,30.17,ENE,61,0.0,6.0,69,0.00,,,0.00,meteohub,2013-04-27 06:23:00,
2013-04-27 02:28:00,73.0,62.6,30.17,NNE,22,0.0,6.0,70,0.00,,,0.00,meteohub,2013-04-27 06:28:00,
2013-04-27 02:33:00,73.0,62.2,30.17,NE,46,0.0,6.0,69,0.00,,,0.00,meteohub,2013-04-27 06:33:00,
2013-04-27 02:38:00,73.0,62.6,30.17,NNE,12,3.0,6.0,70,0.00,,,0.00,meteohub,2013-04-27 06:38:00,
2013-04-27 02:43:00,73.0,62.6,30.17,NE,40,1.0,6.0,70,0.00,,,0.00,meteohub,2013-04-27 06:43:00,
2013-04-27 02:48:00,72.9,62.4,30.16,ESE,115,2.0,6.0,70,0.00,,,0.00,meteohub,2013-04-27 06:48:00,
2013-04-27 02:53:00,73.0,63.1,30.16,ENE,70,0.0,6.0,71,0.00,,,0.00,meteohub,2013-04-27 06:53:00,
2013-04-27 02:58:00,73.0,63.1,30.16,ENE,76,0.0,8.0,71,0.00,,,0.00,meteohub,2013-04-27 06:58:00,
2013-04-27 03:03:00,72.9,63.0,30.16,NE,34,0.0,8.0,71,0.00,,,0.00,meteohub,2013-04-27 07:03:00,
2013-04-27 03:08:00,72.9,63.3,30.16,East,101,1.0,8.0,72,0.00,,,0.00,meteohub,2013-04-27 07:08:00,
2013-04-27 03:14:00,73.0,63.1,30.16,SE,141,0.0,8.0,71,0.00,,,0.00,meteohub,2013-04-27 07:14:00,
2013-04-27 03:19:00,73.0,63.1,30.16,SE,143,0.0,5.0,71,0.00,,,0.00,meteohub,2013-04-27 07:19:00,
2013-04-27 03:24:00,72.9,61.7,30.16,NE,56,0.0,5.0,68,0.00,,,0.00,meteohub,2013-04-27 07:24:00,
2013-04-27 03:29:00,73.0,62.2,30.16,ENE,68,0.0,6.0,69,0.00,,,0.00,meteohub,2013-04-27 07:29:00,
2013-04-27 03:34:00,73.0,63.1,30.16,East,89,1.0,6.0,71,0.00,,,0.00,meteohub,2013-04-27 07:34:00,
2013-04-27 03:39:00,73.0,63.1,30.16,NE,46,0.0,6.0,71,0.00,,,0.00,meteohub,2013-04-27 07:39:00,
2013-04-27 03:44:00,73.0,62.2,30.16,NE,47,0.0,7.0,69,0.00,,,0.00,meteohub,2013-04-27 07:44:00,
2013-04-27 03:49:00,73.0,62.2,30.16,East,92,1.0,7.0,69,0.00,,,0.00,meteohub,2013-04-27 07:49:00,
2013-04-27 03:54:00,72.9,62.1,30.16,East,100,2.0,7.0,69,0.00,,,0.00,meteohub,2013-04-27 07:54:00,
2013-04-27 03:59:00,72.9,62.1,30.15,East,96,1.0,8.0,69,0.00,,,0.00,meteohub,2013-04-27 07:59:00,
2013-04-27 04:04:00,72.9,62.1,30.15,North,0,2.0,8.0,69,0.00,,,0.00,meteohub,2013-04-27 08:04:00,
2013-04-27 04:09:00,72.9,61.7,30.15,East,97,0.0,8.0,68,0.00,,,0.00,meteohub,2013-04-27 08:09:00,
2013-04-27 04:14:00,72.9,61.3,30.15,NNE,16,0.0,8.0,67,0.00,,,0.00,meteohub,2013-04-27 08:14:00,
2013-04-27 04:19:00,72.9,62.1,30.14,North,11,2.0,8.0,69,0.00,,,0.00,meteohub,2013-04-27 08:19:00,
2013-04-27 04:24:00,72.9,63.0,30.14,East,101,0.0,8.0,71,0.00,,,0.00,meteohub,2013-04-27 08:24:00,
2013-04-27 04:29:00,72.9,61.7,30.14,NE,55,0.0,6.0,68,0.00,,,0.00,meteohub,2013-04-27 08:29:00,
2013-04-27 04:34:00,72.9,61.7,30.14,NNW,345,0.0,5.0,68,0.00,,,0.00,meteohub,2013-04-27 08:34:00,
2013-04-27 04:39:00,72.9,61.3,30.14,ESE,113,1.0,7.0,67,0.00,,,0.00,meteohub,2013-04-27 08:39:00,
2013-04-27 04:44:00,72.9,61.3,30.14,NNE,30,1.0,7.0,67,0.00,,,0.00,meteohub,2013-04-27 08:44:00,
2013-04-27 04:49:00,72.9,61.7,30.14,ENE,59,0.0,7.0,68,0.00,,,0.00,meteohub,2013-04-27 08:49:00,
2013-04-27 04:54:00,72.9,62.1,30.13,East,90,2.0,7.0,69,0.00,,,0.00,meteohub,2013-04-27 08:54:00,
2013-04-27 04:59:00,72.7,61.5,30.13,East,99,2.0,7.0,68,0.00,,,0.00,meteohub,2013-04-27 08:59:00,
2013-04-27 05:04:00,72.7,61.9,30.13,East,87,0.0,7.0,69,0.00,,,0.00,meteohub,2013-04-27 09:04:00,
2013-04-27 05:09:00,72.5,61.7,30.13,East,89,1.0,7.0,69,0.00,,,0.00,meteohub,2013-04-27 09:09:00,
2013-04-27 05:14:00,72.3,61.2,30.13,NE,43,0.0,5.0,68,0.00,,,0.00,meteohub,2013-04-27 09:14:00,
2013-04-27 05:19:00,72.3,61.5,30.13,SE,127,1.0,5.0,69,0.00,,,0.00,meteohub,2013-04-27 09:19:00,
2013-04-27 05:24:00,72.3,62.1,30.13,ESE,103,0.0,5.0,70,0.00,,,0.00,meteohub,2013-04-27 09:24:00,
2013-04-27 05:29:00,72.3,62.1,30.13,ENE,78,0.0,3.0,70,0.00,,,0.00,meteohub,2013-04-27 09:29:00,
2013-04-27 05:34:00,72.1,61.9,30.12,ESE,117,0.0,3.0,70,0.00,,,0.00,meteohub,2013-04-27 09:34:00,
2013-04-27 05:39:00,72.1,61.3,30.13,East,86,0.0,3.0,69,0.00,,,0.00,meteohub,2013-04-27 09:39:00,
2013-04-27 05:44:00,72.1,62.2,30.13,ESE,110,0.0,3.0,71,0.00,,,0.00,meteohub,2013-04-27 09:44:00,
2013-04-27 05:50:00,72.1,62.2,30.13,East,92,0.0,3.0,71,0.00,,,0.00,meteohub,2013-04-27 09:50:00,
2013-04-27 05:55:00,72.1,62.6,30.13,ENE,62,0.0,5.0,72,0.00,,,0.00,meteohub,2013-04-27 09:55:00,
2013-04-27 06:00:00,72.0,61.7,30.13,East,98,0.0,5.0,70,0.00,,,0.00,meteohub,2013-04-27 10:00:00,
2013-04-27 06:05:00,72.0,61.7,30.13,East,95,1.0,5.0,70,0.00,,,0.00,meteohub,2013-04-27 10:05:00,
2013-04-27 06:10:00,72.0,62.4,30.13,East,101,1.0,3.0,72,0.00,,,0.00,meteohub,2013-04-27 10:10:00,
2013-04-27 06:15:00,72.0,62.4,30.13,ENE,74,1.0,5.0,72,0.00,,,0.00,meteohub,2013-04-27 10:15:00,
2013-04-27 06:20:00,72.0,62.4,30.13,ENE,63,0.0,5.0,72,0.00,,,0.00,meteohub,2013-04-27 10:20:00,
2013-04-27 06:25:00,72.0,62.4,30.14,East,82,0.0,5.0,72,0.00,,,0.00,meteohub,2013-04-27 10:25:00,
2013-04-27 06:30:00,72.0,62.4,30.14,East,101,0.0,4.0,72,0.00,,,0.00,meteohub,2013-04-27 10:30:00,
2013-04-27 06:35:00,72.1,61.9,30.14,NNW,342,2.0,5.0,70,0.00,,,0.00,meteohub,2013-04-27 10:35:00,
2013-04-27 06:40:00,72.3,62.4,30.14,East,91,0.0,6.0,71,0.00,,,0.00,meteohub,2013-04-27 10:40:00,
2013-04-27 06:45:00,72.3,63.1,30.14,North,10,1.0,7.0,73,0.00,,,0.00,meteohub,2013-04-27 10:45:00,
2013-04-27 06:50:00,72.3,62.8,30.15,ENE,58,2.0,7.0,72,0.00,,,0.00,meteohub,2013-04-27 10:50:00,
2013-04-27 06:55:00,72.3,63.1,30.15,East,85,0.0,5.0,73,0.00,,,0.00,meteohub,2013-04-27 10:55:00,
2013-04-27 07:00:00,72.1,62.6,30.15,NNE,25,0.0,5.0,72,0.00,,,0.00,meteohub,2013-04-27 11:00:00,
2013-04-27 07:05:00,72.1,62.6,30.15,ESE,104,0.0,3.0,72,0.00,,,0.00,meteohub,2013-04-27 11:05:00,
2013-04-27 07:10:00,72.3,63.1,30.15,ENE,67,0.0,3.0,73,0.00,,,0.00,meteohub,2013-04-27 11:10:00,
2013-04-27 07:15:00,72.7,63.1,30.15,ENE,65,0.0,3.0,72,0.00,,,0.00,meteohub,2013-04-27 11:15:00,
2013-04-27 07:20:00,72.9,63.0,30.15,ENE,67,0.0,5.0,71,0.00,,,0.00,meteohub,2013-04-27 11:20:00,
2013-04-27 07:25:00,72.9,63.0,30.16,ENE,75,0.0,5.0,71,0.00,,,0.00,meteohub,2013-04-27 11:25:00,
2013-04-27 07:30:00,73.0,62.6,30.16,ENE,75,1.0,5.0,70,0.00,,,0.00,meteohub,2013-04-27 11:30:00,
2013-04-27 07:35:00,73.2,63.3,30.16,NNE,15,0.0,5.0,71,0.00,,,0.00,meteohub,2013-04-27 11:35:00,
2013-04-27 07:40:00,73.6,63.1,30.16,ENE,61,1.0,5.0,70,0.00,,,0.00,meteohub,2013-04-27 11:40:00,
2013-04-27 07:45:00,73.8,63.3,30.16,East,96,0.0,6.0,70,0.00,,,0.00,meteohub,2013-04-27 11:45:00,
2013-04-27 07:50:00,73.9,63.5,30.16,ENE,67,0.0,6.0,70,0.00,,,0.00,meteohub,2013-04-27 11:50:00,
2013-04-27 07:55:00,74.1,63.7,30.17,NNE,20,4.0,6.0,70,0.00,,,0.00,meteohub,2013-04-27 11:55:00,
2013-04-27 08:01:00,74.7,63.9,30.17,ESE,104,2.0,6.0,69,0.00,,,0.00,meteohub,2013-04-27 12:01:00,
2013-04-27 08:06:00,74.8,63.5,30.17,NE,40,0.0,5.0,68,0.00,,,0.00,meteohub,2013-04-27 12:06:00,
2013-04-27 08:11:00,75.0,63.7,30.17,NE,35,2.0,5.0,68,0.00,,,0.00,meteohub,2013-04-27 12:11:00,
2013-04-27 08:16:00,75.2,63.9,30.17,NE,36,3.0,7.0,68,0.00,,,0.00,meteohub,2013-04-27 12:16:00,
2013-04-27 08:21:00,75.6,63.9,30.17,NE,40,0.0,8.0,67,0.00,,,0.00,meteohub,2013-04-27 12:21:00,
2013-04-27 08:26:00,75.7,64.0,30.17,East,94,0.0,8.0,67,0.00,,,0.00,meteohub,2013-04-27 12:26:00,
2013-04-27 08:31:00,75.9,63.7,30.17,North,5,0.0,8.0,66,0.00,,,0.00,meteohub,2013-04-27 12:31:00,
2013-04-27 08:36:00,76.3,63.1,30.17,East,88,0.0,7.0,64,0.00,,,0.00,meteohub,2013-04-27 12:36:00,
2013-04-27 08:41:00,76.6,63.1,30.17,ESE,120,4.0,8.0,63,0.00,,,0.00,meteohub,2013-04-27 12:41:00,
2013-04-27 08:46:00,76.8,63.3,30.17,East,89,2.0,8.0,63,0.00,,,0.00,meteohub,2013-04-27 12:46:00,
2013-04-27 08:51:00,77.0,63.5,30.17,NE,46,0.0,8.0,63,0.00,,,0.00,meteohub,2013-04-27 12:51:00,
2013-04-27 08:56:00,77.2,63.1,30.17,NE,34,1.0,8.0,62,0.00,,,0.00,meteohub,2013-04-27 12:56:00,
2013-04-27 09:01:00,77.5,63.5,30.17,North,9,3.0,8.0,62,0.00,,,0.00,meteohub,2013-04-27 13:01:00,
2013-04-27 09:06:00,77.7,64.0,30.17,East,82,0.0,8.0,63,0.00,,,0.00,meteohub,2013-04-27 13:06:00,
2013-04-27 09:11:00,78.1,64.4,30.17,NE,49,3.0,8.0,63,0.00,,,0.00,meteohub,2013-04-27 13:11:00,
2013-04-27 09:16:00,78.4,64.4,30.17,SSW,193,3.0,7.0,62,0.00,,,0.00,meteohub,2013-04-27 13:16:00,
2013-04-27 09:21:00,78.6,63.1,30.17,ESE,109,8.0,8.0,59,0.00,,,0.00,meteohub,2013-04-27 13:21:00,
2013-04-27 09:26:00,78.4,63.9,30.17,East,88,5.0,9.0,61,0.00,,,0.00,meteohub,2013-04-27 13:26:00,
2013-04-27 09:31:00,78.4,63.9,30.17,ENE,73,1.0,9.0,61,0.00,,,0.00,meteohub,2013-04-27 13:31:00,
2013-04-27 09:36:00,78.4,63.3,30.17,ENE,77,3.0,9.0,60,0.00,,,0.00,meteohub,2013-04-27 13:36:00,
2013-04-27 09:41:00,78.3,63.3,30.17,NNE,30,4.0,9.0,60,0.00,,,0.00,meteohub,2013-04-27 13:41:00,
2013-04-27 09:48:00,78.6,64.0,30.17,ENE,62,0.0,9.0,61,0.00,,,0.00,meteohub,2013-04-27 13:48:00,
2013-04-27 09:53:00,79.3,64.2,30.17,SE,128,1.0,9.0,60,0.00,,,0.00,meteohub,2013-04-27 13:53:00,
2013-04-27 09:58:00,79.9,65.3,30.17,NNE,30,0.0,9.0,61,0.00,,,0.00,meteohub,2013-04-27 13:58:00,
2013-04-27 10:03:00,79.9,64.8,30.17,SE,134,2.0,9.0,60,0.00,,,0.00,meteohub,2013-04-27 14:03:00,
2013-04-27 10:08:00,79.5,64.9,30.17,East,98,3.0,9.0,61,0.00,,,0.00,meteohub,2013-04-27 14:08:00,
2013-04-27 10:13:00,79.3,65.1,30.17,ENE,74,0.0,6.0,62,0.00,,,0.00,meteohub,2013-04-27 14:13:00,
2013-04-27 10:18:00,79.3,64.2,30.17,NE,40,2.0,8.0,60,0.00,,,0.00,meteohub,2013-04-27 14:18:00,
2013-04-27 10:23:00,79.3,64.8,30.17,NE,36,6.0,8.0,61,0.00,,,0.00,meteohub,2013-04-27 14:23:00,
2013-04-27 10:28:00,79.3,64.8,30.17,North,0,2.0,8.0,61,0.00,,,0.00,meteohub,2013-04-27 14:28:00,
2013-04-27 10:33:00,79.3,64.8,30.18,ENE,64,5.0,9.0,61,0.00,,,0.00,meteohub,2013-04-27 14:33:00,
2013-04-27 10:38:00,79.2,64.9,30.17,ESE,122,8.0,9.0,62,0.00,,,0.00,meteohub,2013-04-27 14:38:00,
2013-04-27 10:43:00,79.2,64.6,30.17,North,5,2.0,9.0,61,0.00,,,0.00,meteohub,2013-04-27 14:43:00,
2013-04-27 10:48:00,79.2,64.0,30.17,East,99,7.0,10.0,60,0.00,,,0.00,meteohub,2013-04-27 14:48:00,
2013-04-27 10:53:00,79.3,64.2,30.18,East,97,5.0,10.0,60,0.00,,,0.00,meteohub,2013-04-27 14:53:00,
2013-04-27 10:58:00,79.5,64.4,30.17,SSE,153,6.0,10.0,60,0.00,,,0.00,meteohub,2013-04-27 14:58:00,
2013-04-27 11:03:00,80.1,64.9,30.17,North,5,0.0,9.0,60,0.00,,,0.00,meteohub,2013-04-27 15:03:00,
2013-04-27 11:08:00,80.4,64.8,30.17,SE,125,1.0,9.0,59,0.00,,,0.00,meteohub,2013-04-27 15:08:00,
2013-04-27 11:13:00,80.1,63.0,30.17,ENE,60,0.0,9.0,56,0.00,,,0.00,meteohub,2013-04-27 15:13:00,
2013-04-27 11:18:00,80.1,63.9,30.17,NNE,33,2.0,9.0,58,0.00,,,0.00,meteohub,2013-04-27 15:18:00,
2013-04-27 11:23:00,80.1,64.9,30.18,NE,46,4.0,11.0,60,0.00,,,0.00,meteohub,2013-04-27 15:23:00,
2013-04-27 11:29:00,79.5,63.9,30.17,ESE,111,0.0,11.0,59,0.00,,,0.00,meteohub,2013-04-27 15:29:00,
2013-04-27 11:34:00,79.5,64.4,30.17,South,175,6.0,11.0,60,0.00,,,0.00,meteohub,2013-04-27 15:34:00,
2013-04-27 11:39:00,79.9,65.3,30.18,SE,136,4.0,8.0,61,0.00,,,0.00,meteohub,2013-04-27 15:39:00,
2013-04-27 11:44:00,80.2,65.1,30.17,SE,146,1.0,8.0,60,0.00,,,0.00,meteohub,2013-04-27 15:44:00,
2013-04-27 11:49:00,80.4,64.2,30.17,NNE,12,1.0,7.0,58,0.00,,,0.00,meteohub,2013-04-27 15:49:00,
2013-04-27 11:54:00,80.1,64.4,30.18,ESE,103,0.0,7.0,59,0.00,,,0.00,meteohub,2013-04-27 15:54:00,
2013-04-27 11:59:00,80.1,63.9,30.18,East,91,2.0,10.0,58,0.00,,,0.00,meteohub,2013-04-27 15:59:00,
2013-04-27 12:04:00,80.1,64.4,30.18,ESE,119,1.0,10.0,59,0.00,,,0.00,meteohub,2013-04-27 16:04:00,
2013-04-27 12:09:00,80.1,63.5,30.18,NE,49,3.0,10.0,57,0.00,,,0.00,meteohub,2013-04-27 16:09:00,
2013-04-27 12:14:00,80.1,63.9,30.18,East,99,0.0,7.0,58,0.00,,,0.00,meteohub,2013-04-27 16:14:00,
2013-04-27 12:19:00,80.4,63.3,30.18,WNW,294,2.0,12.0,56,0.00,,,0.00,meteohub,2013-04-27 16:19:00,
2013-04-27 12:24:00,80.6,64.0,30.18,NNE,32,2.0,12.0,57,0.00,,,0.00,meteohub,2013-04-27 16:24:00,
2013-04-27 12:29:00,80.8,63.1,30.18,NNE,27,6.0,12.0,55,0.00,,,0.00,meteohub,2013-04-27 16:29:00,
2013-04-27 12:34:00,80.4,64.2,30.18,NE,51,3.0,10.0,58,0.00,,,0.00,meteohub,2013-04-27 16:34:00,
2013-04-27 12:39:00,81.0,64.8,30.18,North,355,4.0,10.0,58,0.00,,,0.00,meteohub,2013-04-27 16:39:00,
2013-04-27 12:44:00,80.6,64.4,30.17,ENE,77,3.0,10.0,58,0.00,,,0.00,meteohub,2013-04-27 16:44:00,
2013-04-27 12:49:00,80.1,64.9,30.17,ENE,73,0.0,10.0,60,0.00,,,0.00,meteohub,2013-04-27 16:49:00,
2013-04-27 12:54:00,79.9,64.8,30.17,ESE,111,1.0,10.0,60,0.00,,,0.00,meteohub,2013-04-27 16:54:00,
2013-04-27 12:59:00,80.2,63.1,30.17,SSE,148,3.0,10.0,56,0.00,,,0.00,meteohub,2013-04-27 16:59:00,
2013-04-27 13:04:00,80.8,63.7,30.17,NNE,31,2.0,9.0,56,0.00,,,0.00,meteohub,2013-04-27 17:04:00,
2013-04-27 13:09:00,80.8,64.0,30.17,East,96,2.0,9.0,57,0.00,,,0.00,meteohub,2013-04-27 17:09:00,
2013-04-27 13:14:00,81.0,64.2,30.17,NE,35,3.0,10.0,57,0.00,,,0.00,meteohub,2013-04-27 17:14:00,
2013-04-27 13:20:00,81.0,64.2,30.17,NNW,348,2.0,10.0,57,0.00,,,0.00,meteohub,2013-04-27 17:20:00,
2013-04-27 13:25:00,81.7,64.4,30.17,SSE,159,1.0,10.0,56,0.00,,,0.00,meteohub,2013-04-27 17:25:00,
2013-04-27 13:30:00,81.7,63.9,30.17,East,88,7.0,8.0,55,0.00,,,0.00,meteohub,2013-04-27 17:30:00,
2013-04-27 13:35:00,81.7,64.4,30.17,NNE,30,2.0,8.0,56,0.00,,,0.00,meteohub,2013-04-27 17:35:00,
2013-04-27 13:40:00,81.9,64.6,30.17,East,85,3.0,8.0,56,0.00,,,0.00,meteohub,2013-04-27 17:40:00,
2013-04-27 13:45:00,81.9,65.1,30.16,SE,138,2.0,8.0,57,0.00,,,0.00,meteohub,2013-04-27 17:45:00,
2013-04-27 13:50:00,81.0,64.8,30.16,SSE,149,0.0,8.0,58,0.00,,,0.00,meteohub,2013-04-27 17:50:00,
2013-04-27 13:55:00,81.1,64.9,30.16,SE,126,3.0,8.0,58,0.00,,,0.00,meteohub,2013-04-27 17:55:00,
2013-04-27 14:00:00,81.1,64.4,30.16,North,0,0.0,9.0,57,0.00,,,0.00,meteohub,2013-04-27 18:00:00,
2013-04-27 14:05:00,81.7,64.9,30.16,ESE,112,2.0,9.0,57,0.00,,,0.00,meteohub,2013-04-27 18:05:00,
2013-04-27 14:10:00,81.7,64.9,30.16,SSW,192,2.0,9.0,57,0.00,,,0.00,meteohub,2013-04-27 18:10:00,
2013-04-27 14:15:00,81.7,65.5,30.16,SE,143,1.0,8.0,58,0.00,,,0.00,meteohub,2013-04-27 18:15:00,
2013-04-27 14:20:00,81.7,66.0,30.15,East,96,1.0,10.0,59,0.00,,,0.00,meteohub,2013-04-27 18:20:00,
2013-04-27 14:25:00,81.5,64.8,30.15,ESE,104,4.0,10.0,57,0.00,,,0.00,meteohub,2013-04-27 18:25:00,
2013-04-27 14:30:00,81.3,64.6,30.15,ESE,102,5.0,10.0,57,0.00,,,0.00,meteohub,2013-04-27 18:30:00,
2013-04-27 14:35:00,81.5,64.2,30.15,South,174,2.0,10.0,56,0.00,,,0.00,meteohub,2013-04-27 18:35:00,
2013-04-27 14:40:00,82.0,65.8,30.15,NE,44,1.0,10.0,58,0.00,,,0.00,meteohub,2013-04-27 18:40:00,
2013-04-27 14:45:00,82.2,64.9,30.15,ESE,111,1.0,8.0,56,0.00,,,0.00,meteohub,2013-04-27 18:45:00,
2013-04-27 14:50:00,81.7,64.9,30.14,NE,46,0.0,8.0,57,0.00,,,0.00,meteohub,2013-04-27 18:50:00,
2013-04-27 14:55:00,81.9,65.1,30.15,NNE,26,1.0,8.0,57,0.00,,,0.00,meteohub,2013-04-27 18:55:00,
2013-04-27 15:00:00,81.7,64.4,30.14,ENE,66,2.0,8.0,56,0.00,,,0.00,meteohub,2013-04-27 19:00:00,
2013-04-27 15:05:00,81.0,65.3,30.14,SE,132,5.0,7.0,59,0.00,,,0.00,meteohub,2013-04-27 19:05:00,
2013-04-27 15:10:00,81.3,65.7,30.14,East,88,3.0,8.0,59,0.00,,,0.00,meteohub,2013-04-27 19:10:00,
2013-04-27 15:15:00,81.7,64.9,30.14,NE,38,2.0,9.0,57,0.00,,,0.00,meteohub,2013-04-27 19:15:00,
2013-04-27 15:20:00,81.1,64.9,30.14,East,92,0.0,9.0,58,0.00,,,0.00,meteohub,2013-04-27 19:20:00,
2013-04-27 15:25:00,81.3,66.0,30.13,ENE,63,3.0,9.0,60,0.00,,,0.00,meteohub,2013-04-27 19:25:00,
2013-04-27 15:30:00,81.5,66.2,30.13,ESE,119,7.0,7.0,60,0.00,,,0.00,meteohub,2013-04-27 19:30:00,
2013-04-27 15:35:00,81.7,66.0,30.13,NNE,32,5.0,8.0,59,0.00,,,0.00,meteohub,2013-04-27 19:35:00,
2013-04-27 15:40:00,82.0,65.8,30.13,ESE,105,4.0,8.0,58,0.00,,,0.00,meteohub,2013-04-27 19:40:00,
2013-04-27 15:45:00,81.3,65.1,30.12,SE,130,1.0,8.0,58,0.00,,,0.00,meteohub,2013-04-27 19:45:00,
2013-04-27 15:50:00,81.3,66.6,30.12,ENE,59,2.0,8.0,61,0.00,,,0.00,meteohub,2013-04-27 19:50:00,
2013-04-27 15:55:00,81.5,66.2,30.12,SSE,164,2.0,8.0,60,0.00,,,0.00,meteohub,2013-04-27 19:55:00,
2013-04-27 16:00:00,81.7,66.0,30.12,NNE,33,4.0,8.0,59,0.00,,,0.00,meteohub,2013-04-27 20:00:00,
2013-04-27 16:05:00,81.7,65.5,30.12,NNE,25,1.0,8.0,58,0.00,,,0.00,meteohub,2013-04-27 20:05:00,
2013-04-27 16:10:00,81.7,65.5,30.12,East,101,3.0,8.0,58,0.00,,,0.00,meteohub,2013-04-27 20:10:00,
2013-04-27 16:15:00,81.9,66.6,30.12,ENE,71,2.0,8.0,60,0.00,,,0.00,meteohub,2013-04-27 20:15:00,
2013-04-27 16:21:00,81.9,66.2,30.11,NE,46,1.0,6.0,59,0.00,,,0.00,meteohub,2013-04-27 20:21:00,
2013-04-27 16:26:00,81.3,65.7,30.11,NNE,20,1.0,7.0,59,0.00,,,0.00,meteohub,2013-04-27 20:26:00,
2013-04-27 16:31:00,81.1,66.0,30.11,NE,45,0.0,7.0,60,0.00,,,0.00,meteohub,2013-04-27 20:31:00,
2013-04-27 16:36:00,81.1,65.5,30.11,NNE,30,5.0,7.0,59,0.00,,,0.00,meteohub,2013-04-27 20:36:00,
2013-04-27 16:41:00,80.8,65.1,30.11,North,0,0.0,7.0,59,0.00,,,0.00,meteohub,2013-04-27 20:41:00,
2013-04-27 16:46:00,80.4,65.7,30.11,SSE,159,1.0,7.0,61,0.00,,,0.00,meteohub,2013-04-27 20:46:00,
2013-04-27 16:51:00,80.2,65.5,30.11,NNE,20,0.0,7.0,61,0.00,,,0.00,meteohub,2013-04-27 20:51:00,
2013-04-27 16:56:00,80.1,65.5,30.11,East,84,2.0,6.0,61,0.00,,,0.00,meteohub,2013-04-27 20:56:00,
2013-04-27 17:01:00,80.2,66.6,30.11,East,97,0.0,6.0,63,0.00,,,0.00,meteohub,2013-04-27 21:01:00,
2013-04-27 17:06:00,80.1,66.4,30.11,SE,126,0.0,5.0,63,0.00,,,0.00,meteohub,2013-04-27 21:06:00,
2013-04-27 17:11:00,80.2,66.0,30.11,ESE,106,3.0,6.0,62,0.00,,,0.00,meteohub,2013-04-27 21:11:00,
2013-04-27 17:16:00,80.1,65.8,30.11,NNE,12,1.0,6.0,62,0.00,,,0.00,meteohub,2013-04-27 21:16:00,
2013-04-27 17:21:00,79.9,65.7,30.11,ESE,114,0.0,6.0,62,0.00,,,0.00,meteohub,2013-04-27 21:21:00,
2013-04-27 17:26:00,79.9,66.2,30.11,NNE,28,3.0,6.0,63,0.00,,,0.00,meteohub,2013-04-27 21:26:00,
2013-04-27 17:31:00,79.9,65.7,30.11,NNE,17,0.0,6.0,62,0.00,,,0.00,meteohub,2013-04-27 21:31:00,
2013-04-27 17:36:00,79.9,65.7,30.10,East,84,5.0,6.0,62,0.00,,,0.00,meteohub,2013-04-27 21:36:00,
2013-04-27 17:41:00,79.9,66.2,30.10,NNE,24,2.0,6.0,63,0.00,,,0.00,meteohub,2013-04-27 21:41:00,
2013-04-27 17:46:00,79.5,66.2,30.10,East,81,6.0,8.0,64,0.00,,,0.00,meteohub,2013-04-27 21:46:00,
2013-04-27 17:51:00,79.5,65.8,30.10,North,11,2.0,8.0,63,0.00,,,0.00,meteohub,2013-04-27 21:51:00,
2013-04-27 17:56:00,79.2,65.8,30.10,East,96,2.0,8.0,64,0.00,,,0.00,meteohub,2013-04-27 21:56:00,
2013-04-27 18:01:00,79.2,66.4,30.09,ENE,77,0.0,7.0,65,0.00,,,0.00,meteohub,2013-04-27 22:01:00,
2013-04-27 18:06:00,79.3,66.0,30.10,ESE,109,0.0,5.0,64,0.00,,,0.00,meteohub,2013-04-27 22:06:00,
2013-04-27 18:11:00,79.0,66.2,30.10,ESE,119,0.0,5.0,65,0.00,,,0.00,meteohub,2013-04-27 22:11:00,
2013-04-27 18:16:00,78.8,66.0,30.10,East,82,0.0,5.0,65,0.00,,,0.00,meteohub,2013-04-27 22:16:00,
2013-04-27 18:21:00,79.0,66.6,30.09,ESE,116,1.0,5.0,66,0.00,,,0.00,meteohub,2013-04-27 22:21:00,
2013-04-27 18:26:00,78.6,65.8,30.09,East,86,0.0,4.0,65,0.00,,,0.00,meteohub,2013-04-27 22:26:00,
2013-04-27 18:31:00,78.4,66.2,30.09,ENE,68,0.0,6.0,66,0.00,,,0.00,meteohub,2013-04-27 22:31:00,
2013-04-27 18:37:00,78.3,66.0,30.10,ENE,72,0.0,6.0,66,0.00,,,0.00,meteohub,2013-04-27 22:37:00,
2013-04-27 18:42:00,78.1,66.2,30.09,ESE,118,0.0,6.0,67,0.00,,,0.00,meteohub,2013-04-27 22:42:00,
2013-04-27 18:47:00,78.1,66.2,30.09,North,0,0.0,6.0,67,0.00,,,0.00,meteohub,2013-04-27 22:47:00,
2013-04-27 18:52:00,77.7,66.4,30.09,NE,53,1.0,6.0,68,0.00,,,0.00,meteohub,2013-04-27 22:52:00,
2013-04-27 18:57:00,77.5,66.6,30.09,NE,36,1.0,8.0,69,0.00,,,0.00,meteohub,2013-04-27 22:57:00,
2013-04-27 19:02:00,77.5,66.6,30.09,NE,37,1.0,8.0,69,0.00,,,0.00,meteohub,2013-04-27 23:02:00,
2013-04-27 19:07:00,77.2,66.2,30.09,NNE,28,0.0,8.0,69,0.00,,,0.00,meteohub,2013-04-27 23:07:00,
2013-04-27 19:12:00,77.0,66.4,30.09,NE,51,2.0,6.0,70,0.00,,,0.00,meteohub,2013-04-27 23:12:00,
2013-04-27 19:17:00,76.6,66.6,30.09,NE,55,1.0,6.0,71,0.00,,,0.00,meteohub,2013-04-27 23:17:00,
2013-04-27 19:22:00,76.5,66.4,30.09,East,89,0.0,5.0,71,0.00,,,0.00,meteohub,2013-04-27 23:22:00,
2013-04-27 19:27:00,76.3,66.6,30.09,East,96,3.0,5.0,72,0.00,,,0.00,meteohub,2013-04-27 23:27:00,
2013-04-27 19:32:00,76.3,66.9,30.09,SE,137,0.0,6.0,73,0.00,,,0.00,meteohub,2013-04-27 23:32:00,
2013-04-27 19:37:00,76.1,67.3,30.09,ESE,118,1.0,6.0,74,0.00,,,0.00,meteohub,2013-04-27 23:37:00,
2013-04-27 19:42:00,75.9,67.1,30.09,NNE,27,0.0,6.0,74,0.00,,,0.00,meteohub,2013-04-27 23:42:00,
2013-04-27 19:47:00,75.9,66.6,30.09,ENE,71,4.0,5.0,73,0.00,,,0.00,meteohub,2013-04-27 23:47:00,
2013-04-27 19:52:00,75.7,66.9,30.09,North,0,5.0,5.0,74,0.00,,,0.00,meteohub,2013-04-27 23:52:00,
2013-04-27 19:57:00,75.7,66.9,30.09,NNE,28,1.0,7.0,74,0.00,,,0.00,meteohub,2013-04-27 23:57:00,
2013-04-27 20:02:00,75.7,66.9,30.09,ESE,103,0.0,7.0,74,0.00,,,0.00,meteohub,2013-04-28 00:02:00,
2013-04-27 20:07:00,75.6,66.7,30.09,ESE,112,2.0,7.0,74,0.00,,,0.00,meteohub,2013-04-28 00:07:00,
2013-04-27 20:12:00,75.6,67.1,30.09,East,92,1.0,6.0,75,0.00,,,0.00,meteohub,2013-04-28 00:12:00,
2013-04-27 20:17:00,75.6,67.1,30.10,East,84,3.0,7.0,75,0.00,,,0.00,meteohub,2013-04-28 00:17:00,
2013-04-27 20:22:00,75.4,66.9,30.10,NE,34,0.0,7.0,75,0.00,,,0.00,meteohub,2013-04-28 00:22:00,
2013-04-27 20:27:00,75.2,67.1,30.10,East,87,0.0,7.0,76,0.00,,,0.00,meteohub,2013-04-28 00:27:00,
2013-04-27 20:32:00,75.2,66.7,30.10,East,82,2.0,6.0,75,0.00,,,0.00,meteohub,2013-04-28 00:32:00,
2013-04-27 20:37:00,75.4,67.3,30.10,North,5,2.0,6.0,76,0.00,,,0.00,meteohub,2013-04-28 00:37:00,
2013-04-27 20:42:00,75.4,67.3,30.10,NNE,25,1.0,6.0,76,0.00,,,0.00,meteohub,2013-04-28 00:42:00,
2013-04-27 20:47:00,75.6,67.5,30.10,NNE,29,2.0,8.0,76,0.00,,,0.00,meteohub,2013-04-28 00:47:00,
2013-04-27 20:52:00,75.6,67.5,30.11,ENE,75,0.0,8.0,76,0.00,,,0.00,meteohub,2013-04-28 00:52:00,
2013-04-27 20:57:00,75.4,67.3,30.11,NNE,26,0.0,8.0,76,0.00,,,0.00,meteohub,2013-04-28 00:57:00,
2013-04-27 21:02:00,75.4,67.3,30.11,East,84,0.0,8.0,76,0.00,,,0.00,meteohub,2013-04-28 01:02:00,
2013-04-27 21:07:00,75.4,67.3,30.11,NE,48,3.0,5.0,76,0.00,,,0.00,meteohub,2013-04-28 01:07:00,
2013-04-27 21:12:00,75.4,67.3,30.11,SE,141,1.0,6.0,76,0.00,,,0.00,meteohub,2013-04-28 01:12:00,
2013-04-27 21:17:00,75.4,67.3,30.11,NNE,22,0.0,8.0,76,0.00,,,0.00,meteohub,2013-04-28 01:17:00,
2013-04-27 21:21:00,75.4,67.3,30.12,NE,41,0.0,8.0,76,0.00,,,0.00,meteohub,2013-04-28 01:21:00,
2013-04-27 21:27:00,75.4,67.3,30.12,East,83,3.0,8.0,76,0.00,,,0.00,meteohub,2013-04-28 01:27:00,
2013-04-27 21:32:00,75.4,67.3,30.12,ESE,117,0.0,7.0,76,0.00,,,0.00,meteohub,2013-04-28 01:32:00,
2013-04-27 21:37:00,75.2,66.7,30.12,East,98,2.0,7.0,75,0.00,,,0.00,meteohub,2013-04-28 01:37:00,
2013-04-27 21:42:00,75.0,66.6,30.12,NE,56,0.0,7.0,75,0.00,,,0.00,meteohub,2013-04-28 01:42:00,
2013-04-27 21:47:00,74.8,66.4,30.12,NNW,335,2.0,8.0,75,0.00,,,0.00,meteohub,2013-04-28 01:47:00,
2013-04-27 21:52:00,74.8,66.4,30.12,NNW,340,2.0,8.0,75,0.00,,,0.00,meteohub,2013-04-28 01:52:00,
2013-04-27 21:57:00,74.8,66.4,30.12,NE,52,2.0,9.0,75,0.00,,,0.00,meteohub,2013-04-28 01:57:00,
2013-04-27 22:02:00,74.8,66.0,30.12,NE,46,1.0,9.0,74,0.00,,,0.00,meteohub,2013-04-28 02:02:00,
2013-04-27 22:07:00,74.8,65.7,30.12,NE,38,4.0,10.0,73,0.00,,,0.00,meteohub,2013-04-28 02:07:00,
2013-04-27 22:12:00,74.8,65.7,30.12,ENE,64,0.0,10.0,73,0.00,,,0.00,meteohub,2013-04-28 02:12:00,
2013-04-27 22:17:00,74.8,65.7,30.12,NE,51,0.0,10.0,73,0.00,,,0.00,meteohub,2013-04-28 02:17:00,
2013-04-27 22:22:00,74.8,65.7,30.12,East,91,0.0,8.0,73,0.00,,,0.00,meteohub,2013-04-28 02:22:00,
2013-04-27 22:27:00,74.8,65.1,30.13,ESE,121,1.0,9.0,72,0.00,,,0.00,meteohub,2013-04-28 02:27:00,
2013-04-27 22:32:00,74.8,64.4,30.13,ESE,115,2.0,9.0,70,0.00,,,0.00,meteohub,2013-04-28 02:32:00,
2013-04-27 22:37:00,74.8,64.0,30.13,East,82,1.0,9.0,69,0.00,,,0.00,meteohub,2013-04-28 02:37:00,
2013-04-27 22:42:00,74.8,63.5,30.13,ESE,117,2.0,7.0,68,0.00,,,0.00,meteohub,2013-04-28 02:42:00,
2013-04-27 22:47:00,74.8,64.0,30.13,NNE,25,5.0,8.0,69,0.00,,,0.00,meteohub,2013-04-28 02:47:00,
2013-04-27 22:52:00,74.8,64.0,30.13,NE,48,1.0,8.0,69,0.00,,,0.00,meteohub,2013-04-28 02:52:00,
2013-04-27 22:57:00,74.8,63.1,30.13,NNE,12,5.0,8.0,67,0.00,,,0.00,meteohub,2013-04-28 02:57:00,
2013-04-27 23:02:00,74.8,63.5,30.13,North,11,6.0,10.0,68,0.00,,,0.00,meteohub,2013-04-28 03:02:00,
2013-04-27 23:07:00,75.0,63.7,30.13,NNW,333,4.0,10.0,68,0.00,,,0.00,meteohub,2013-04-28 03:07:00,
2013-04-27 23:12:00,75.0,63.3,30.13,East,87,0.0,10.0,67,0.00,,,0.00,meteohub,2013-04-28 03:12:00,
2013-04-27 23:17:00,75.0,63.7,30.13,SE,136,2.0,10.0,68,0.00,,,0.00,meteohub,2013-04-28 03:17:00,
2013-04-27 23:22:00,75.0,63.3,30.13,ESE,110,2.0,10.0,67,0.00,,,0.00,meteohub,2013-04-28 03:22:00,
2013-04-27 23:27:00,75.0,63.0,30.13,NE,53,0.0,8.0,66,0.00,,,0.00,meteohub,2013-04-28 03:27:00,
2013-04-27 23:32:00,75.0,63.0,30.13,NNE,31,2.0,8.0,66,0.00,,,0.00,meteohub,2013-04-28 03:32:00,
2013-04-27 23:37:00,75.0,63.3,30.13,East,82,0.0,8.0,67,0.00,,,0.00,meteohub,2013-04-28 03:37:00,
2013-04-27 23:42:00,75.0,62.4,30.12,SSE,152,3.0,8.0,65,0.00,,,0.00,meteohub,2013-04-28 03:42:00,
2013-04-27 23:47:00,75.0,63.0,30.13,ESE,105,0.0,8.0,66,0.00,,,0.00,meteohub,2013-04-28 03:47:00,
2013-04-27 23:52:00,75.0,63.0,30.12,SE,129,0.0,6.0,66,0.00,,,0.00,meteohub,2013-04-28 03:52:00,
2013-04-27 23:57:00,75.0,62.4,30.13,SE,137,4.0,7.0,65,0.00,,,0.00,meteohub,2013-04-28 03:57:00,